Аэропорт: Бесовец. Петрозаводск

ICAO: ULPB

METAR:
2019/01/21 22:30
ULPB 212230Z 24002MPS CAVOK M20/M22 Q1011 R19/492031 NOSIG RMK QFE754/1006
METAR:
Информация по данной станции не доступна